Time;durP1;ratioP1;P1;durP2;ratioP2;P2;SDS_P1;SDS_P2;PMS_P1;PMS_P2;Temp;Humidity;BMP_temperature;BMP_pressure;BME280_temperature;BME280_humidity;BME280_pressure;Samples;Min_cycle;Max_cycle;Signal;HPM_P1;HPM_P2
2021/05/26 00:00:21;;;;;;;7.97;6.60;;;;;;;13.93;100.00;101137.63;1713533;82;21135;-64
2021/05/26 00:02:48;;;;;;;9.35;5.92;;;;;;;13.94;100.00;101132.64;1714240;82;21041;-67
2021/05/26 00:05:16;;;;;;;8.43;7.10;;;;;;;13.95;100.00;101135.75;1703776;82;21097;-66
2021/05/26 00:07:42;;;;;;;8.20;6.47;;;;;;;13.97;100.00;101132.51;1684233;81;22010;-67
2021/05/26 00:10:10;;;;;;;9.33;6.97;;;;;;;13.98;100.00;101130.22;1714408;83;21086;-65
2021/05/26 00:12:37;;;;;;;10.43;7.40;;;;;;;13.99;100.00;101131.97;1687364;83;21724;-67
2021/05/26 00:15:07;;;;;;;10.45;6.92;;;;;;;13.99;100.00;101126.58;1683438;83;21531;-67
2021/05/26 00:17:36;;;;;;;10.65;7.08;;;;;;;14.01;100.00;101124.69;1695188;83;21289;-67
2021/05/26 00:20:04;;;;;;;24.75;6.97;;;;;;;14.03;100.00;101125.49;1714381;82;21169;-65
2021/05/26 00:22:31;;;;;;;10.65;7.40;;;;;;;14.02;100.00;101125.58;1691286;83;21160;-66
2021/05/26 00:24:58;;;;;;;9.48;7.72;;;;;;;14.00;100.00;101126.98;1683639;85;21089;-66
2021/05/26 00:27:25;;;;;;;12.40;7.47;;;;;;;13.99;100.00;101125.23;1683979;83;21157;-66
2021/05/26 00:29:52;;;;;;;11.20;7.97;;;;;;;14.00;100.00;101121.59;1683920;83;21148;-66
2021/05/26 00:32:18;;;;;;;9.30;6.95;;;;;;;14.01;100.00;101121.99;1683758;83;21100;-65
2021/05/26 00:34:45;;;;;;;10.25;6.90;;;;;;;14.02;100.00;101122.39;1683096;85;21140;-68
2021/05/26 00:37:12;;;;;;;8.83;6.75;;;;;;;14.01;100.00;101115.25;1684204;83;21125;-67
2021/05/26 00:39:39;;;;;;;8.13;5.97;;;;;;;14.02;100.00;101110.27;1683134;85;21165;-66
2021/05/26 00:42:06;;;;;;;9.15;6.45;;;;;;;14.03;100.00;101105.27;1685683;83;21208;-67
2021/05/26 00:44:32;;;;;;;8.75;5.92;;;;;;;14.07;100.00;101109.21;1686769;83;21188;-68
2021/05/26 00:46:59;;;;;;;9.80;5.80;;;;;;;14.06;100.00;101111.02;1710368;82;21106;-66
2021/05/26 00:49:27;;;;;;;7.15;5.62;;;;;;;14.04;100.00;101111.10;1712988;83;21106;-68
2021/05/26 00:51:54;;;;;;;10.28;5.83;;;;;;;14.04;100.00;101105.71;1682051;83;21516;-67
2021/05/26 00:54:20;;;;;;;7.50;5.72;;;;;;;14.04;100.00;101098.97;1684430;83;22309;-66
2021/05/26 00:56:49;;;;;;;8.25;5.47;;;;;;;14.06;100.00;101103.42;1654788;85;21571;-66
2021/05/26 00:59:16;;;;;;;7.58;5.15;;;;;;;14.06;100.00;101093.98;1683321;85;21097;-69
2021/05/26 01:01:43;;;;;;;6.10;4.70;;;;;;;14.05;100.00;101099.83;1654143;85;22330;-69
2021/05/26 01:04:10;;;;;;;5.33;4.25;;;;;;;14.04;100.00;101100.31;1683689;85;21081;-69
2021/05/26 01:06:38;;;;;;;7.28;4.80;;;;;;;14.04;100.00;101094.92;1711209;81;21062;-68
2021/05/26 01:09:05;;;;;;;7.12;4.50;;;;;;;14.08;100.00;101097.48;1709428;83;21176;-68
2021/05/26 01:11:32;;;;;;;6.03;4.67;;;;;;;14.10;100.00;101095.59;1703750;83;21095;-69
2021/05/26 01:13:59;;;;;;;7.22;5.08;;;;;;;14.10;100.00;101084.31;1737868;81;21142;-68
2021/05/26 01:16:26;;;;;;;6.17;4.42;;;;;;;14.12;100.00;101081.56;1737451;81;21121;-69
2021/05/26 01:18:53;;;;;;;8.23;4.80;;;;;;;14.14;100.00;101086.41;1716512;83;21125;-67
2021/05/26 01:21:21;;;;;;;7.75;4.58;;;;;;;14.17;100.00;101087.63;1711630;82;21787;-67
2021/05/26 01:23:49;;;;;;;7.03;5.08;;;;;;;14.16;100.00;101086.77;1712412;82;21102;-69
2021/05/26 01:26:18;;;;;;;7.85;5.15;;;;;;;14.16;100.00;101088.11;1685746;83;21520;-70
2021/05/26 01:28:44;;;;;;;6.72;4.80;;;;;;;14.17;100.00;101083.58;1707482;83;21143;-69
2021/05/26 01:31:14;;;;;;;8.53;5.45;;;;;;;14.17;100.00;101080.87;1705571;83;21722;-67
2021/05/26 01:33:41;;;;;;;7.87;6.50;;;;;;;14.15;100.00;101074.69;1742723;80;21095;-68
2021/05/26 01:36:13;;;;;;;5.22;4.72;;;;;;;14.15;100.00;101076.03;1693825;83;21133;-69
2021/05/26 01:38:39;;;;;;;7.05;5.42;;;;;;;14.16;100.00;101069.70;1725510;82;21553;-67
2021/05/26 01:41:06;;;;;;;6.10;4.80;;;;;;;14.17;100.00;101069.64;1740356;81;21092;-67
2021/05/26 01:43:35;;;;;;;8.63;5.60;;;;;;;14.20;100.00;101067.75;1733233;81;21125;-69
2021/05/26 01:46:02;;;;;;;7.47;5.28;;;;;;;14.20;100.00;101071.79;1709528;83;22337;-67
2021/05/26 01:48:31;;;;;;;9.50;5.10;;;;;;;14.20;100.00;101075.34;1709224;81;21086;-69
2021/05/26 01:50:57;;;;;;;6.17;5.10;;;;;;;14.21;100.00;101079.80;1703807;83;21097;-69
2021/05/26 01:53:26;;;;;;;8.10;5.58;;;;;;;14.21;100.00;101082.48;1682223;83;21140;-69
2021/05/26 01:55:54;;;;;;;8.80;5.67;;;;;;;14.23;100.00;101080.59;1704434;82;21380;-69
2021/05/26 01:58:20;;;;;;;6.47;5.22;;;;;;;14.23;100.00;101080.59;1704111;84;21260;-69
2021/05/26 02:00:49;;;;;;;9.33;5.40;;;;;;;14.22;100.00;101085.59;1708749;82;21088;-70
2021/05/26 02:03:15;;;;;;;7.30;5.47;;;;;;;14.24;100.00;101082.84;1737934;81;21047;-70
2021/05/26 02:05:44;;;;;;;7.70;4.83;;;;;;;14.23;100.00;101077.90;1723664;82;21121;-68
2021/05/26 02:08:10;;;;;;;7.28;5.10;;;;;;;14.24;100.00;101085.05;1725113;80;21095;-71
2021/05/26 02:13:22;;;;;;;;;;;;;;;14.23;100.00;101089.17;1709461;82;21134;-70
2021/05/26 02:15:51;;;;;;;5.08;4.15;;;;;;;14.23;100.00;101094.08;1714336;82;20742;-73
2021/05/26 02:18:19;;;;;;;17.50;5.83;;;;;;;14.22;100.00;101100.42;1686393;83;21112;-68
2021/05/26 02:20:45;;;;;;;4.92;4.05;;;;;;;14.23;100.00;101102.66;1714398;82;21777;-68
2021/05/26 02:23:13;;;;;;;5.22;3.95;;;;;;;14.24;100.00;101103.06;1691239;83;21077;-68
2021/05/26 02:25:41;;;;;;;4.85;3.92;;;;;;;14.26;100.00;101098.47;1697840;83;20991;-68
2021/05/26 02:28:10;;;;;;;5.25;4.08;;;;;;;14.29;100.00;101100.57;1715093;82;21031;-70
2021/05/26 02:30:37;;;;;;;4.75;3.83;;;;;;;14.33;100.00;101102.17;1702257;83;21531;-71
2021/05/26 02:33:07;;;;;;;6.60;4.65;;;;;;;14.37;100.00;101106.97;1682966;84;22340;-69
2021/05/26 02:35:34;;;;;;;8.15;3.90;;;;;;;14.41;100.00;101103.19;1698939;83;21183;-68
2021/05/26 02:38:01;;;;;;;8.45;4.75;;;;;;;14.47;100.00;101108.74;1683202;83;21045;-69
2021/05/26 02:40:32;;;;;;;5.15;3.80;;;;;;;14.50;100.00;101108.63;1683322;83;21093;-68
2021/05/26 02:42:59;;;;;;;7.03;4.78;;;;;;;14.54;100.00;101108.89;1628707;87;21100;-69
2021/05/26 02:45:25;;;;;;;5.25;4.35;;;;;;;14.57;100.00;101106.05;1705383;83;21080;-68
2021/05/26 02:47:54;;;;;;;7.65;4.50;;;;;;;14.56;100.00;101105.64;1666481;85;21433;-69
2021/05/26 02:50:21;;;;;;;4.60;4.10;;;;;;;14.61;100.00;101110.34;1656518;85;21031;-68
2021/05/26 02:52:51;;;;;;;5.42;4.30;;;;;;;14.69;100.00;101104.59;1664518;84;21647;-65
2021/05/26 02:55:21;;;;;;;5.35;4.35;;;;;;;14.80;100.00;101100.08;1659311;86;21074;-66
2021/05/26 02:57:49;;;;;;;7.65;4.55;;;;;;;14.91;100.00;101090.12;1685052;84;21065;-69
2021/05/26 03:00:24;;;;;;;5.80;4.65;;;;;;;15.01;100.00;101100.86;1676026;84;21486;-69
2021/05/26 03:02:58;;;;;;;9.03;4.33;;;;;;;15.12;100.00;101101.69;1704203;82;21571;-70
2021/05/26 03:05:26;;;;;;;5.40;4.53;;;;;;;15.23;100.00;101103.01;1709058;82;21984;-67
2021/05/26 03:07:54;;;;;;;5.37;4.40;;;;;;;15.30;100.00;101100.40;1714587;80;21057;-68
2021/05/26 03:10:21;;;;;;;6.05;3.60;;;;;;;15.42;100.00;101107.02;1714329;83;21107;-69
2021/05/26 03:12:49;;;;;;;5.22;3.98;;;;;;;15.50;100.00;101102.59;1684593;83;21632;-70
2021/05/26 03:15:18;;;;;;;4.97;3.40;;;;;;;15.59;100.00;101111.60;1683574;85;21089;-69
2021/05/26 03:17:45;;;;;;;4.67;3.20;;;;;;;15.68;100.00;101110.23;1688427;83;21623;-66
2021/05/26 03:20:15;;;;;;;4.62;3.55;;;;;;;15.80;100.00;101121.78;1713500;82;21106;-66
2021/05/26 03:22:51;;;;;;;6.60;3.90;;;;;;;15.90;100.00;101124.92;1696080;83;21129;-66
2021/05/26 03:25:36;;;;;;;;;;;;;;;15.99;100.00;101124.93;1693325;83;21165;-65
2021/05/26 03:28:08;;;;;;;7.28;5.15;;;;;;;16.07;100.00;101129.94;1684116;84;20225;-66
2021/05/26 03:30:34;;;;;;;5.97;5.17;;;;;;;16.13;100.00;101136.38;1691229;83;21130;-66
2021/05/26 03:33:05;;;;;;;6.62;5.20;;;;;;;16.16;100.00;101137.56;1705700;83;21136;-68
2021/05/26 03:35:32;;;;;;;5.92;5.12;;;;;;;16.20;100.00;101140.50;1713621;82;21584;-66
2021/05/26 03:38:00;;;;;;;5.92;5.15;;;;;;;16.25;100.00;101142.50;1683717;83;21749;-67
2021/05/26 03:40:28;;;;;;;6.42;5.65;;;;;;;16.30;100.00;101144.48;1646374;83;21145;-67
2021/05/26 03:42:56;;;;;;;8.50;4.95;;;;;;;16.36;100.00;101151.41;1686567;84;21105;-68
2021/05/26 03:45:33;;;;;;;6.75;5.22;;;;;;;16.46;100.00;101150.41;1676026;83;21132;-67
2021/05/26 03:48:05;;;;;;;5.60;4.12;;;;;;;16.54;100.00;101157.66;1681546;84;21069;-67
2021/05/26 03:50:32;;;;;;;4.80;3.90;;;;;;;16.60;100.00;101155.97;1689177;83;21085;-68
2021/05/26 03:52:59;;;;;;;6.20;3.80;;;;;;;16.71;100.00;101161.30;1683725;83;21153;-66
2021/05/26 03:55:26;;;;;;;4.55;3.77;;;;;;;16.80;100.00;101166.20;1683554;85;21583;-68
2021/05/26 03:57:54;;;;;;;6.00;3.80;;;;;;;16.85;100.00;101173.58;1657330;85;21216;-67
2021/05/26 04:00:22;;;;;;;8.13;3.90;;;;;;;16.91;100.00;101176.44;1678993;83;21102;-68
2021/05/26 04:02:51;;;;;;;3.90;3.52;;;;;;;16.98;100.00;101174.27;1711837;83;21039;-67
2021/05/26 04:05:19;;;;;;;7.05;3.58;;;;;;;17.06;100.00;101172.03;1708955;82;22297;-68
2021/05/26 04:07:48;;;;;;;3.80;3.40;;;;;;;17.16;100.00;101180.05;1715309;80;22184;-67
2021/05/26 04:10:16;;;;;;;5.80;3.20;;;;;;;17.26;100.00;101189.01;1737577;81;21086;-67
2021/05/26 04:12:44;;;;;;;7.60;3.22;;;;;;;17.34;100.00;101194.86;1705988;82;21125;-67
2021/05/26 04:15:16;;;;;;;3.72;2.92;;;;;;;17.41;100.00;101195.39;1711017;82;21171;-67
2021/05/26 04:17:47;;;;;;;4.37;3.12;;;;;;;17.46;100.00;101199.59;1736105;80;21822;-68
2021/05/26 04:20:16;;;;;;;7.10;2.87;;;;;;;17.52;100.00;101200.20;1702584;84;22076;-67
2021/05/26 04:22:42;;;;;;;9.73;3.35;;;;;;;17.60;100.00;101200.65;1718323;82;21119;-68
2021/05/26 04:25:10;;;;;;;4.05;2.77;;;;;;;17.71;100.00;101202.24;1737625;81;21075;-68
2021/05/26 04:27:37;;;;;;;3.77;3.05;;;;;;;17.81;99.28;101201.73;1737696;81;21694;-68
2021/05/26 04:30:05;;;;;;;3.70;3.02;;;;;;;17.88;98.16;101201.75;1741043;80;21108;-67
2021/05/26 04:32:34;;;;;;;6.25;3.17;;;;;;;17.96;97.32;101199.45;1738847;80;21404;-68
2021/05/26 04:35:01;;;;;;;3.55;2.98;;;;;;;18.03;96.07;101200.88;1742719;81;21151;-68
2021/05/26 04:37:27;;;;;;;3.98;2.80;;;;;;;18.13;95.26;101201.68;1738701;80;21107;-67
2021/05/26 04:39:54;;;;;;;4.65;3.35;;;;;;;18.21;94.78;101206.15;1738704;81;21090;-67
2021/05/26 04:42:21;;;;;;;4.95;3.02;;;;;;;18.32;93.81;101206.39;1741299;80;21726;-68
2021/05/26 04:44:47;;;;;;;4.65;3.15;;;;;;;18.44;92.73;101214.27;1742434;81;21292;-66
2021/05/26 04:47:14;;;;;;;4.05;3.25;;;;;;;18.53;91.92;101219.63;1742547;80;21056;-67
2021/05/26 04:49:42;;;;;;;3.55;2.83;;;;;;;18.59;90.99;101221.09;1737735;82;21107;-67
2021/05/26 04:52:09;;;;;;;4.25;3.20;;;;;;;18.66;90.37;101224.28;1737486;81;21346;-67
2021/05/26 04:54:37;;;;;;;3.45;3.02;;;;;;;18.72;89.49;101223.92;1738086;81;21120;-67
2021/05/26 04:57:05;;;;;;;6.33;3.50;;;;;;;18.79;89.02;101226.64;1737372;81;21527;-69
2021/05/26 04:59:31;;;;;;;4.20;3.52;;;;;;;18.86;88.38;101223.91;1743394;80;21004;-67
2021/05/26 05:01:57;;;;;;;4.35;3.35;;;;;;;18.92;87.78;101228.60;1742435;80;21100;-68
2021/05/26 05:04:24;;;;;;;4.20;3.35;;;;;;;18.99;87.37;101227.27;1708647;82;21125;-67
2021/05/26 05:06:50;;;;;;;3.72;3.30;;;;;;;19.07;86.52;101229.00;1725497;82;21122;-67
2021/05/26 05:09:17;;;;;;;7.50;3.70;;;;;;;19.14;85.95;101234.45;1703559;83;21459;-67
2021/05/26 05:11:45;;;;;;;4.12;2.70;;;;;;;19.20;85.73;101236.39;1704141;82;21086;-68
2021/05/26 05:14:12;;;;;;;3.83;2.80;;;;;;;19.29;84.69;101233.06;1703664;84;21552;-68
2021/05/26 05:16:38;;;;;;;5.22;2.70;;;;;;;19.35;83.52;101237.24;1722639;82;21565;-68
2021/05/26 05:19:06;;;;;;;9.15;2.90;;;;;;;19.41;83.24;101240.45;1737443;80;21437;-68
2021/05/26 05:21:35;;;;;;;3.75;2.70;;;;;;;19.51;82.96;101237.11;1737195;81;21439;-68
2021/05/26 05:24:04;;;;;;;2.60;2.40;;;;;;;19.58;82.09;101233.04;1737691;81;21031;-68
2021/05/26 05:26:30;;;;;;;3.60;2.98;;;;;;;19.65;81.55;101230.77;1742123;81;21402;-68
2021/05/26 05:28:57;;;;;;;6.08;3.15;;;;;;;19.71;81.45;101239.39;1742670;81;21105;-70
2021/05/26 05:31:23;;;;;;;7.65;3.05;;;;;;;19.82;81.39;101235.97;1740634;81;21383;-68
2021/05/26 05:33:50;;;;;;;7.42;2.90;;;;;;;19.89;80.95;101245.95;1737638;81;21158;-68
2021/05/26 05:36:16;;;;;;;4.30;2.90;;;;;;;19.96;80.40;101255.98;1737620;82;21123;-68
2021/05/26 05:38:43;;;;;;;3.92;2.62;;;;;;;19.98;79.68;101260.33;1737421;81;21162;-68
2021/05/26 05:41:10;;;;;;;2.98;2.45;;;;;;;20.08;79.46;101263.30;1737589;82;21118;-68
2021/05/26 05:43:37;;;;;;;2.47;2.22;;;;;;;20.17;78.28;101264.54;1732119;81;21450;-68
2021/05/26 05:46:04;;;;;;;4.17;2.62;;;;;;;20.23;78.04;101265.98;1728710;82;21118;-68
2021/05/26 05:48:31;;;;;;;2.90;2.60;;;;;;;20.30;78.00;101264.58;1737934;82;21375;-68
2021/05/26 05:50:58;;;;;;;3.33;2.40;;;;;;;20.39;77.56;101260.35;1737366;82;21356;-67
2021/05/26 05:53:24;;;;;;;4.78;2.52;;;;;;;20.41;76.77;101266.56;1720062;82;21115;-66
2021/05/26 05:55:51;;;;;;;3.20;2.55;;;;;;;20.43;76.41;101265.97;1718796;82;21161;-66
2021/05/26 05:58:27;;;;;;;5.20;2.45;;;;;;;20.43;76.36;101265.49;1731917;81;21131;-68
2021/05/26 06:00:54;;;;;;;3.92;2.80;;;;;;;20.47;75.98;101266.16;1726441;82;21658;-68
2021/05/26 06:03:20;;;;;;;3.02;2.72;;;;;;;20.46;75.52;101261.19;1734626;82;21136;-69
2021/05/26 06:05:47;;;;;;;3.12;2.80;;;;;;;20.45;75.80;101258.59;1722256;80;21133;-68
2021/05/26 06:08:14;;;;;;;3.25;2.60;;;;;;;20.51;75.79;101261.36;1711734;82;21196;-67
2021/05/26 06:10:41;;;;;;;3.33;2.37;;;;;;;20.56;75.58;101263.30;1694766;81;21639;-71
2021/05/26 06:13:09;;;;;;;4.37;2.50;;;;;;;20.60;75.33;101275.21;1665724;84;21108;-73
2021/05/26 06:15:35;;;;;;;6.87;2.35;;;;;;;20.62;75.32;101280.57;1685860;83;21124;-72
2021/05/26 06:18:03;;;;;;;5.67;2.65;;;;;;;20.68;75.42;101299.71;1660626;84;21732;-68
2021/05/26 06:20:30;;;;;;;4.12;2.67;;;;;;;20.71;75.43;101309.03;1656194;85;21161;-67
2021/05/26 06:22:57;;;;;;;4.42;2.17;;;;;;;20.68;75.22;101311.97;1686608;83;21109;-66
2021/05/26 06:25:25;;;;;;;3.75;2.37;;;;;;;20.66;74.29;101311.17;1669178;84;21145;-71
2021/05/26 06:27:51;;;;;;;6.17;2.25;;;;;;;20.65;73.83;101308.06;1657216;84;21123;-68
2021/05/26 06:30:19;;;;;;;5.67;2.22;;;;;;;20.65;73.43;101305.34;1686535;83;21139;-67
2021/05/26 06:32:45;;;;;;;2.10;1.90;;;;;;;20.63;72.45;101316.84;1701436;82;22306;-67
2021/05/26 06:35:12;;;;;;;2.52;2.02;;;;;;;20.58;72.18;101324.84;1686476;83;20959;-67
2021/05/26 06:37:39;;;;;;;2.15;1.95;;;;;;;20.56;72.27;101328.16;1694358;83;21173;-67
2021/05/26 06:40:07;;;;;;;4.10;2.30;;;;;;;20.58;72.27;101322.13;1702316;83;21139;-67
2021/05/26 06:42:35;;;;;;;2.95;1.95;;;;;;;20.61;72.29;101316.45;1683081;83;22263;-67
2021/05/26 06:45:02;;;;;;;3.58;2.02;;;;;;;20.68;72.19;101317.42;1694325;83;21164;-68
2021/05/26 06:47:28;;;;;;;1.75;1.65;;;;;;;20.74;71.48;101326.52;1660357;84;21161;-70
2021/05/26 06:49:55;;;;;;;3.05;1.98;;;;;;;20.78;71.27;101328.05;1665215;84;21187;-70
2021/05/26 06:52:21;;;;;;;3.50;2.20;;;;;;;20.82;70.84;101325.52;1660891;84;21096;-67
2021/05/26 06:54:49;;;;;;;4.17;1.77;;;;;;;20.87;70.51;101315.16;1675676;83;21765;-69
2021/05/26 06:57:17;;;;;;;2.17;1.95;;;;;;;20.91;70.16;101307.66;1652248;85;22420;-67
2021/05/26 06:59:45;;;;;;;3.70;2.02;;;;;;;20.97;69.19;101310.45;1650846;85;21133;-67
2021/05/26 07:02:11;;;;;;;8.08;2.00;;;;;;;21.04;68.61;101319.45;1683239;84;21223;-69
2021/05/26 07:04:38;;;;;;;2.55;1.90;;;;;;;21.12;68.08;101332.55;1670883;84;21152;-66
2021/05/26 07:07:05;;;;;;;3.10;1.98;;;;;;;21.17;67.69;101332.20;1681007;84;21136;-67
2021/05/26 07:09:32;;;;;;;4.00;1.90;;;;;;;21.15;66.74;101328.71;1686287;81;21210;-68
2021/05/26 07:11:59;;;;;;;4.17;2.27;;;;;;;21.18;66.16;101328.02;1731105;81;21093;-66
2021/05/26 07:14:27;;;;;;;3.60;2.05;;;;;;;21.28;66.41;101322.78;1728985;81;21085;-66
2021/05/26 07:16:53;;;;;;;4.15;2.10;;;;;;;21.39;65.90;101327.94;1723195;81;21110;-66
2021/05/26 07:19:21;;;;;;;3.10;2.00;;;;;;;21.45;65.69;101328.37;1731563;81;21264;-68
2021/05/26 07:21:48;;;;;;;6.83;2.40;;;;;;;21.54;66.41;101325.95;1723668;81;21585;-67
2021/05/26 07:24:15;;;;;;;6.83;2.35;;;;;;;21.59;67.01;101327.88;1730729;80;21107;-67
2021/05/26 07:26:42;;;;;;;8.15;2.60;;;;;;;21.64;67.82;101334.34;1714570;81;21100;-65
2021/05/26 07:29:09;;;;;;;4.62;2.70;;;;;;;21.68;67.56;101338.65;1724929;80;21071;-70
2021/05/26 07:31:37;;;;;;;4.83;2.45;;;;;;;21.68;67.61;101331.32;1687230;83;21820;-68
2021/05/26 07:34:03;;;;;;;6.70;2.30;;;;;;;21.70;67.27;101338.90;1688550;83;22307;-66
2021/05/26 07:36:30;;;;;;;5.37;2.58;;;;;;;21.74;66.68;101346.38;1663218;84;21125;-67
2021/05/26 07:38:58;;;;;;;5.53;2.70;;;;;;;21.81;66.16;101344.08;1668782;84;21193;-68
2021/05/26 07:41:25;;;;;;;7.20;2.85;;;;;;;21.89;64.75;101344.38;1677691;84;21166;-68
2021/05/26 07:43:53;;;;;;;4.85;2.72;;;;;;;21.95;64.27;101345.27;1660182;84;21119;-71
2021/05/26 07:46:20;;;;;;;7.78;2.87;;;;;;;21.99;64.33;101342.69;1672606;84;21161;-67
2021/05/26 07:48:51;;;;;;;3.20;2.83;;;;;;;22.03;65.05;101346.96;1677753;84;21148;-68
2021/05/26 07:51:27;;;;;;;2.98;2.65;;;;;;;22.03;64.48;101340.14;1683891;84;21084;-68
2021/05/26 07:53:49;;;;;;;4.45;3.08;;;;;;;22.00;65.16;101336.27;1723905;81;21613;-68
2021/05/26 07:56:15;;;;;;;4.72;2.42;;;;;;;21.99;64.98;101334.50;1722041;81;21080;-66
2021/05/26 07:58:43;;;;;;;2.75;2.27;;;;;;;21.98;64.00;101338.22;1719349;81;21890;-68
2021/05/26 08:01:10;;;;;;;4.90;2.37;;;;;;;21.94;63.19;101345.41;1719763;81;20984;-67
2021/05/26 08:03:38;;;;;;;4.35;2.50;;;;;;;21.87;62.66;101340.89;1716475;81;21146;-67
2021/05/26 08:06:05;;;;;;;3.83;2.62;;;;;;;21.82;63.36;101344.45;1727333;81;21051;-68
2021/05/26 08:08:34;;;;;;;4.50;3.10;;;;;;;21.76;62.43;101344.41;1734391;81;21505;-67
2021/05/26 08:11:00;;;;;;;4.08;2.90;;;;;;;21.73;62.75;101337.30;1713183;81;21396;-66
2021/05/26 08:13:26;;;;;;;3.52;2.70;;;;;;;21.70;63.63;101338.90;1705109;82;21722;-64
2021/05/26 08:15:53;;;;;;;5.80;2.77;;;;;;;21.67;64.17;101344.58;1719095;82;21127;-67
2021/05/26 08:18:20;;;;;;;2.87;2.50;;;;;;;21.62;64.00;101334.47;1724450;81;21141;-67
2021/05/26 08:20:48;;;;;;;3.55;2.60;;;;;;;21.56;64.30;101330.84;1727242;82;21760;-67
2021/05/26 08:23:15;;;;;;;2.95;2.67;;;;;;;21.54;64.99;101333.66;1723922;80;21008;-67
2021/05/26 08:25:42;;;;;;;4.78;2.67;;;;;;;21.53;65.26;101326.46;1725403;82;21010;-66
2021/05/26 08:28:09;;;;;;;7.08;2.00;;;;;;;21.49;65.07;101329.52;1721075;82;21532;-66
2021/05/26 08:30:37;;;;;;;9.48;2.75;;;;;;;21.44;63.56;101326.63;1718235;82;21088;-65
2021/05/26 08:33:06;;;;;;;4.30;2.35;;;;;;;21.39;63.94;101323.38;1712076;82;39503;-65
2021/05/26 08:35:33;;;;;;;5.87;2.35;;;;;;;21.35;65.92;101319.13;1720234;82;21094;-66
2021/05/26 08:38:00;;;;;;;3.15;2.50;;;;;;;21.33;66.91;101319.70;1704378;82;21158;-66
2021/05/26 08:40:26;;;;;;;3.65;2.27;;;;;;;21.32;67.56;101319.32;1716362;82;21185;-65
2021/05/26 08:42:54;;;;;;;3.02;2.17;;;;;;;21.24;67.96;101319.01;1709592;82;20937;-65
2021/05/26 08:45:20;;;;;;;3.17;2.30;;;;;;;21.11;68.77;101314.45;1704540;82;22214;-66
2021/05/26 08:47:46;;;;;;;4.50;2.25;;;;;;;21.04;69.31;101319.45;1721174;81;21507;-67
2021/05/26 08:50:16;;;;;;;3.47;2.35;;;;;;;21.05;69.64;101331.22;1676101;83;21152;-66
2021/05/26 08:52:43;;;;;;;8.73;2.45;;;;;;;21.08;69.32;101332.36;1711200;82;21551;-65
2021/05/26 08:55:14;;;;;;;3.83;2.42;;;;;;;21.12;69.19;101328.45;1711797;82;21562;-64
2021/05/26 08:57:40;;;;;;;3.12;2.62;;;;;;;21.13;68.71;101330.20;1713432;82;21614;-65
2021/05/26 09:00:08;;;;;;;3.17;2.40;;;;;;;21.05;69.27;101328.48;1718219;82;20966;-67
2021/05/26 09:02:34;;;;;;;4.25;2.55;;;;;;;20.99;69.96;101331.66;1707010;82;21121;-65
2021/05/26 09:05:01;;;;;;;2.50;2.30;;;;;;;20.96;69.42;101337.33;1684750;83;21148;-66
2021/05/26 09:07:32;;;;;;;3.77;2.40;;;;;;;20.91;69.90;101345.81;1704881;81;21516;-66
2021/05/26 09:10:00;;;;;;;3.45;2.25;;;;;;;20.89;70.00;101341.85;1663024;83;21171;-67
2021/05/26 09:12:41;;;;;;;3.55;2.55;;;;;;;20.85;69.94;101344.38;1727399;81;21629;-67
2021/05/26 09:15:20;;;;;;;4.10;3.00;;;;;;;20.82;70.08;101333.70;1703747;82;21083;-67
2021/05/26 09:17:56;;;;;;;3.12;2.83;;;;;;;20.79;70.56;101340.69;1709547;81;21025;-66
2021/05/26 09:20:29;;;;;;;4.62;2.62;;;;;;;20.77;70.61;101335.84;1733176;81;20993;-67
2021/05/26 09:23:17;;;;;;;5.58;2.70;;;;;;;20.80;70.34;101334.30;1746201;81;21644;-66
2021/05/26 09:25:49;;;;;;;3.40;2.40;;;;;;;20.86;70.38;101337.95;1688794;83;21193;-65
2021/05/26 09:28:29;;;;;;;2.37;2.17;;;;;;;20.90;69.36;101337.25;1729828;81;21159;-64
2021/05/26 09:31:08;;;;;;;6.22;2.22;;;;;;;20.87;68.89;101332.88;1702365;82;21039;-63
2021/05/26 09:33:52;;;;;;;2.80;2.20;;;;;;;20.87;68.89;101337.47;1739979;81;21557;-65
2021/05/26 09:36:23;;;;;;;4.40;2.70;;;;;;;20.87;68.97;101333.38;1705886;82;22223;-65
2021/05/26 09:39:04;;;;;;;2.02;1.82;;;;;;;20.86;68.36;101336.59;1726969;81;21588;-66
2021/05/26 09:41:34;;;;;;;3.35;2.87;;;;;;;20.82;67.91;101339.14;1702207;82;21543;-64
2021/05/26 09:44:09;;;;;;;3.10;2.58;;;;;;;20.78;68.04;101336.70;1729688;81;21127;-66
2021/05/26 09:46:39;;;;;;;2.35;2.15;;;;;;;20.78;69.01;101339.42;1724262;81;21136;-66
2021/05/26 09:49:18;;;;;;;4.05;2.67;;;;;;;20.73;68.46;101335.67;1684217;84;21493;-64
2021/05/26 09:51:55;;;;;;;3.20;2.25;;;;;;;20.69;68.48;101340.45;1759691;81;21811;-63
2021/05/26 09:54:31;;;;;;;3.90;2.30;;;;;;;20.69;68.38;101339.59;1702993;82;21570;-65
2021/05/26 09:57:07;;;;;;;5.45;2.17;;;;;;;20.74;68.02;101342.88;1710046;82;21020;-65
2021/05/26 09:59:36;;;;;;;3.08;2.77;;;;;;;20.71;67.40;101338.49;1714658;81;21128;-64
2021/05/26 10:02:07;;;;;;;4.42;2.35;;;;;;;20.73;68.36;101341.13;1677662;82;21702;-65
2021/05/26 10:04:42;;;;;;;3.45;2.40;;;;;;;20.80;68.43;101337.52;1717238;81;20946;-65
2021/05/26 10:07:34;;;;;;;4.28;2.65;;;;;;;20.84;68.21;101330.38;1696012;82;21588;-65
2021/05/26 10:10:02;;;;;;;6.12;2.83;;;;;;;20.89;68.51;101331.42;1747939;81;21032;-66
2021/05/26 10:12:35;;;;;;;3.22;2.52;;;;;;;20.88;67.66;101327.81;1687560;83;21013;-64
2021/05/26 10:15:08;;;;;;;4.78;2.45;;;;;;;20.87;66.57;101322.48;1693598;83;21959;-65
2021/05/26 10:17:39;;;;;;;3.65;2.27;;;;;;;20.82;67.64;101320.58;1652255;85;21115;-66
2021/05/26 10:20:09;;;;;;;5.00;2.47;;;;;;;20.80;67.96;101320.67;1679407;83;21603;-66
2021/05/26 10:22:38;;;;;;;7.00;2.40;;;;;;;20.79;67.81;101318.03;1664836;83;21701;-65
2021/05/26 10:25:07;;;;;;;2.58;1.95;;;;;;;20.74;67.81;101312.39;1656287;84;21010;-64
2021/05/26 10:27:39;;;;;;;3.33;2.62;;;;;;;20.73;68.18;101309.80;1686032;83;21784;-65
2021/05/26 10:30:10;;;;;;;5.45;2.47;;;;;;;20.72;68.22;101310.77;1664776;83;21449;-65
2021/05/26 10:33:02;;;;;;;2.67;2.40;;;;;;;20.73;69.03;101311.16;1695681;83;21001;-64
2021/05/26 10:35:31;;;;;;;3.00;2.50;;;;;;;20.72;69.33;101312.13;1651578;83;21165;-64
2021/05/26 10:38:08;;;;;;;2.70;2.50;;;;;;;20.69;69.24;101313.72;1684731;83;21052;-64
2021/05/26 10:40:47;;;;;;;4.20;2.42;;;;;;;20.57;70.59;101305.39;1664715;84;21657;-64
2021/05/26 10:43:26;;;;;;;3.70;2.62;;;;;;;20.48;71.03;101312.84;1643643;84;21625;-63
2021/05/26 10:45:55;;;;;;;4.53;3.40;;;;;;;20.45;70.34;101311.70;1679224;83;21147;-65
2021/05/26 10:48:46;;;;;;;3.95;3.00;;;;;;;20.41;70.45;101313.75;1671098;84;21026;-66
2021/05/26 10:51:16;;;;;;;3.30;3.00;;;;;;;20.44;70.51;101312.17;1658672;84;21122;-64
2021/05/26 10:53:45;;;;;;;3.87;2.87;;;;;;;20.43;69.91;101309.54;1656224;85;21349;-65
2021/05/26 10:56:40;;;;;;;4.30;2.80;;;;;;;20.38;69.74;101311.70;1674818;84;21121;-64
2021/05/26 10:59:14;;;;;;;3.67;2.98;;;;;;;20.33;69.71;101306.09;1674226;83;21030;-63
2021/05/26 11:02:12;;;;;;;4.53;2.90;;;;;;;20.28;70.01;101306.90;1666552;83;21044;-64
2021/05/26 11:04:38;;;;;;;4.60;2.70;;;;;;;20.26;70.51;101306.13;1653338;83;21483;-64
2021/05/26 11:07:29;;;;;;;6.70;3.20;;;;;;;20.24;71.07;101304.00;1626106;84;21507;-64
2021/05/26 11:10:06;;;;;;;4.40;3.35;;;;;;;20.24;71.04;101299.92;1676960;83;21191;-66
2021/05/26 11:12:58;;;;;;;5.15;3.62;;;;;;;20.27;69.42;101297.46;1687246;81;20948;-64
2021/05/26 11:15:49;;;;;;;5.87;3.35;;;;;;;20.24;69.45;101295.84;1704254;81;21609;-65
2021/05/26 11:18:34;;;;;;;6.05;4.03;;;;;;;20.23;68.68;101288.65;1671582;82;21457;-67
2021/05/26 11:21:17;;;;;;;4.58;3.55;;;;;;;20.20;68.26;101295.63;1688188;83;21554;-70
2021/05/26 11:23:55;;;;;;;6.08;3.58;;;;;;;20.20;69.10;101291.55;1670988;84;21468;-69
2021/05/26 11:26:31;;;;;;;4.17;3.77;;;;;;;20.24;69.58;101294.48;1742449;80;21070;-67
2021/05/26 11:28:59;;;;;;;6.70;3.45;;;;;;;20.32;69.14;101290.73;1723301;81;21509;-68
2021/05/26 11:31:27;;;;;;;6.47;3.83;;;;;;;20.39;69.08;101284.86;1715236;81;21461;-68
2021/05/26 11:33:57;;;;;;;4.60;3.87;;;;;;;20.39;69.00;101284.86;1720579;81;21661;-67